createdAt,value
2018-03-27T00:00:10.788Z,75.26
2018-03-27T00:01:20.924Z,75.64
2018-03-27T00:02:31.066Z,75.55
2018-03-27T00:03:40.992Z,76.03
2018-03-27T00:04:51.183Z,75.96
2018-03-27T00:06:01.051Z,75.59
2018-03-27T00:07:11.232Z,75.64
2018-03-27T00:08:21.403Z,75.36
2018-03-27T00:09:31.544Z,75.74
2018-03-27T00:10:41.466Z,75.55
2018-03-27T00:11:51.626Z,75.74
2018-03-27T00:13:01.758Z,76.03
2018-03-27T00:14:11.926Z,75.84
2018-03-27T00:15:22.079Z,75.93
2018-03-27T00:16:32.226Z,76.03
2018-03-27T00:17:42.429Z,76.21
2018-03-27T00:18:52.624Z,76.4
2018-03-27T00:20:02.775Z,76.12
2018-03-27T00:21:12.635Z,76.12
2018-03-27T00:22:22.512Z,75.84
2018-03-27T00:23:32.712Z,76.12
2018-03-27T00:24:42.855Z,76.31
2018-03-27T00:25:53.191Z,76.4
2018-03-27T00:27:03.352Z,76.03
2018-03-27T00:28:13.550Z,75.84
2018-03-27T00:29:23.403Z,76.03
2018-03-27T00:30:33.572Z,75.93
2018-03-27T00:31:43.430Z,76.12
2018-03-27T00:32:53.354Z,76.4
2018-03-27T00:34:02.971Z,76.21
2018-03-27T00:35:12.851Z,76.03
2018-03-27T00:36:22.754Z,76.68
2018-03-27T00:37:32.900Z,76.68
2018-03-27T00:38:42.809Z,76.5
2018-03-27T00:39:52.953Z,76.59
2018-03-27T00:41:02.837Z,76.87
2018-03-27T00:42:12.703Z,76.68
2018-03-27T00:43:22.382Z,76.97
2018-03-27T00:44:32.661Z,76.97
2018-03-27T00:45:42.184Z,76.87
2018-03-27T00:46:52.307Z,76.78
2018-03-27T00:48:02.016Z,76.78
2018-03-27T00:49:12.168Z,76.87
2018-03-27T00:50:22.041Z,76.97
2018-03-27T00:51:31.896Z,76.87
2018-03-27T00:52:42.011Z,77.06
2018-03-27T00:53:52.147Z,76.68
2018-03-27T00:55:02.356Z,77.16
2018-03-27T00:56:12.562Z,76.87
2018-03-27T00:57:22.739Z,77.25
2018-03-27T00:58:32.933Z,77.35
2018-03-27T00:59:43.054Z,77.64
2018-03-27T01:00:53.186Z,77.45
2018-03-27T01:02:03.334Z,77.45
2018-03-27T01:03:13.540Z,77.35
2018-03-27T01:04:23.685Z,77.64
2018-03-27T01:05:33.834Z,77.73
2018-03-27T01:06:44.083Z,77.64
2018-03-27T01:07:54.216Z,77.64
2018-03-27T01:09:04.360Z,77.35
2018-03-27T01:10:14.310Z,76.97
2018-03-27T01:11:24.173Z,76.87
2018-03-27T01:12:34.348Z,76.78
2018-03-27T01:13:44.462Z,76.97
2018-03-27T01:14:54.640Z,76.78
2018-03-27T01:16:04.810Z,77.16
2018-03-27T01:17:14.952Z,76.87
2018-03-27T01:18:25.101Z,76.87
2018-03-27T01:19:35.224Z,77.01
2018-03-27T01:20:45.189Z,76.82
2018-03-27T01:21:55.300Z,76.54
2018-03-27T01:23:05.469Z,76.44
2018-03-27T01:24:15.591Z,76.63
2018-03-27T01:25:25.103Z,76.73
2018-03-27T01:26:35.212Z,76.54
2018-03-27T01:27:45.333Z,76.63
2018-03-27T01:28:55.376Z,76.44
2018-03-27T01:30:05.186Z,76.25
2018-03-27T01:31:15.347Z,76.54
2018-03-27T01:32:25.255Z,76.44
2018-03-27T01:33:35.241Z,76.63
2018-03-27T01:34:45.118Z,76.73
2018-03-27T01:35:54.980Z,76.54
2018-03-27T01:37:05.117Z,76.54
2018-03-27T01:38:14.708Z,76.4
2018-03-27T01:39:24.215Z,76.5
2018-03-27T01:40:33.969Z,76.31
2018-03-27T01:41:43.593Z,76.4
2018-03-27T01:42:53.494Z,76.5
2018-03-27T01:44:03.664Z,76.5
2018-03-27T01:45:13.577Z,76.59
2018-03-27T01:46:24.421Z,76.59
2018-03-27T01:47:34.546Z,76.5
2018-03-27T01:48:44.415Z,76.5
2018-03-27T01:49:54.558Z,76.4
2018-03-27T01:51:04.452Z,76.87
2018-03-27T01:52:14.362Z,76.87
2018-03-27T01:53:24.602Z,76.87
2018-03-27T01:54:34.764Z,76.87
2018-03-27T01:55:44.913Z,76.78
2018-03-27T01:56:55.057Z,76.68
2018-03-27T01:58:04.941Z,76.68
2018-03-27T01:59:14.200Z,76.87
2018-03-27T02:00:24.610Z,76.4
2018-03-27T02:01:34.746Z,76.68
2018-03-27T02:02:44.619Z,76.87
2018-03-27T02:03:55.465Z,76.63
2018-03-27T02:05:05.619Z,77.11
2018-03-27T02:06:15.758Z,76.92
2018-03-27T02:07:25.938Z,76.97
2018-03-27T02:08:36.117Z,76.87
2018-03-27T02:09:46.268Z,76.82
2018-03-27T02:10:56.457Z,76.82
2018-03-27T02:12:06.628Z,77.39
2018-03-27T02:13:16.817Z,76.73
2018-03-27T02:14:26.701Z,76.73
2018-03-27T02:15:36.882Z,76.92
2018-03-27T02:16:46.754Z,76.73
2018-03-27T02:17:56.922Z,76.92
2018-03-27T02:19:07.126Z,77.11
2018-03-27T02:20:17.326Z,77.01
2018-03-27T02:21:27.568Z,77.01
2018-03-27T02:22:37.715Z,77.11
2018-03-27T02:23:47.989Z,76.73
2018-03-27T02:24:57.890Z,76.92
2018-03-27T02:26:08.034Z,76.92
2018-03-27T02:27:17.913Z,77.01
2018-03-27T02:28:27.883Z,76.63
2018-03-27T02:29:38.093Z,76.92
2018-03-27T02:30:48.246Z,76.73
2018-03-27T02:31:58.472Z,76.63
2018-03-27T02:33:08.745Z,76.92
2018-03-27T02:34:18.921Z,76.63
2018-03-27T02:35:29.153Z,76.82
2018-03-27T02:36:39.351Z,76.54
2018-03-27T02:37:49.497Z,76.25
2018-03-27T02:38:59.391Z,76.34
2018-03-27T02:40:09.552Z,76.54
2018-03-27T02:41:19.675Z,75.96
2018-03-27T02:42:29.794Z,76.44
2018-03-27T02:43:40.002Z,76.63
2018-03-27T02:44:49.880Z,76.34
2018-03-27T02:45:59.794Z,76.54
2018-03-27T02:47:09.561Z,76.73
2018-03-27T02:48:19.799Z,76.44
2018-03-27T02:49:29.659Z,76.44
2018-03-27T02:50:39.453Z,76.73
2018-03-27T02:51:49.596Z,76.54
2018-03-27T02:52:59.798Z,76.54
2018-03-27T02:54:09.944Z,76.73
2018-03-27T02:55:19.885Z,76.54
2018-03-27T02:56:29.754Z,76.54
2018-03-27T02:57:39.897Z,76.25
2018-03-27T02:58:49.797Z,76.25
2018-03-27T02:59:59.947Z,76.44
2018-03-27T03:01:10.087Z,76.73
2018-03-27T03:02:20.335Z,76.29
2018-03-27T03:03:30.482Z,76.06
2018-03-27T03:04:40.357Z,76.25
2018-03-27T03:05:50.204Z,76.25
2018-03-27T03:07:00.354Z,76.25
2018-03-27T03:08:10.503Z,76.15
2018-03-27T03:09:20.645Z,75.87
2018-03-27T03:10:30.846Z,76.54
2018-03-27T03:11:41.084Z,76.54
2018-03-27T03:12:51.263Z,76.54
2018-03-27T03:14:00.867Z,76.34
2018-03-27T03:15:10.727Z,76.63
2018-03-27T03:16:20.852Z,76.44
2018-03-27T03:17:30.971Z,76.92
2018-03-27T03:18:40.841Z,77.01
2018-03-27T03:19:51.006Z,77.01
2018-03-27T03:21:01.140Z,77.01
2018-03-27T03:22:11.035Z,76.92
2018-03-27T03:23:20.542Z,76.92
2018-03-27T03:24:30.293Z,76.92
2018-03-27T03:25:40.514Z,77.01
2018-03-27T03:26:50.410Z,77.01
2018-03-27T03:28:00.537Z,77.11
2018-03-27T03:29:10.408Z,77.01
2018-03-27T03:30:20.279Z,77.11
2018-03-27T03:31:30.160Z,76.92
2018-03-27T03:32:40.331Z,76.82
2018-03-27T03:33:50.599Z,76.92
2018-03-27T03:35:00.493Z,77.11
2018-03-27T03:36:10.603Z,76.92
2018-03-27T03:37:20.498Z,76.92
2018-03-27T03:38:30.685Z,76.92
2018-03-27T03:39:40.805Z,77.01
2018-03-27T03:40:50.954Z,76.82
2018-03-27T03:42:01.099Z,76.95
2018-03-27T03:43:11.443Z,77.14
2018-03-27T03:44:21.612Z,76.95
2018-03-27T03:45:31.514Z,76.95
2018-03-27T03:46:41.648Z,76.95
2018-03-27T03:47:51.417Z,76.67
2018-03-27T03:49:01.322Z,76.57
2018-03-27T03:50:11.481Z,76.48
2018-03-27T03:51:21.603Z,76.67
2018-03-27T03:52:31.879Z,76.48
2018-03-27T03:53:41.733Z,76.29
2018-03-27T03:54:51.329Z,76.48
2018-03-27T03:56:01.206Z,76.29
2018-03-27T03:57:11.543Z,76.48
2018-03-27T03:58:21.680Z,76.67
2018-03-27T03:59:31.573Z,76.76
2018-03-27T04:00:41.249Z,76.76
2018-03-27T04:01:51.528Z,76.48
2018-03-27T04:03:01.666Z,76.48
2018-03-27T04:04:11.793Z,76.48
2018-03-27T04:05:21.412Z,76.2
2018-03-27T04:06:31.599Z,76.39
2018-03-27T04:07:41.870Z,76.1
2018-03-27T04:08:51.764Z,76.01
2018-03-27T04:10:01.531Z,76.2
2018-03-27T04:11:11.147Z,75.81
2018-03-27T04:12:22.319Z,75.62
2018-03-27T04:13:32.450Z,75.72
2018-03-27T04:14:42.374Z,75.91
2018-03-27T04:15:52.523Z,75.81
2018-03-27T04:17:02.659Z,75.62
2018-03-27T04:18:12.796Z,75.72
2018-03-27T04:19:22.699Z,75.62
2018-03-27T04:20:32.821Z,75.78
2018-03-27T04:21:42.758Z,75.49
2018-03-27T04:22:52.646Z,76.06
2018-03-27T04:24:02.150Z,76.06
2018-03-27T04:25:12.306Z,75.87
2018-03-27T04:26:22.162Z,76.34
2018-03-27T04:27:32.163Z,76.54
2018-03-27T04:28:42.295Z,76.82
2018-03-27T04:29:52.523Z,77.06
2018-03-27T04:31:02.684Z,77.54
2018-03-27T04:32:12.830Z,77.83
2018-03-27T04:33:23.034Z,77.64
2018-03-27T04:34:33.254Z,77.45
2018-03-27T04:35:43.478Z,77.64
2018-03-27T04:36:53.859Z,78.02
2018-03-27T04:38:03.999Z,78.11
2018-03-27T04:39:14.259Z,78.58
2018-03-27T04:40:24.394Z,78.3
2018-03-27T04:41:34.537Z,78.67
2018-03-27T04:42:44.476Z,78.39
2018-03-27T04:43:54.602Z,78.58
2018-03-27T04:45:04.803Z,78.49
2018-03-27T04:46:14.946Z,78.02
2018-03-27T04:47:24.870Z,78.39
2018-03-27T04:48:34.417Z,78.67
2018-03-27T04:49:44.337Z,78.49
2018-03-27T04:50:54.185Z,78.02
2018-03-27T04:52:04.046Z,78.67
2018-03-27T04:53:14.464Z,78.39
2018-03-27T04:54:24.394Z,78.53
2018-03-27T04:55:33.931Z,77.96
2018-03-27T04:56:43.583Z,77.96
2018-03-27T04:57:53.468Z,78.24
2018-03-27T04:59:03.223Z,78.34
2018-03-27T05:00:13.108Z,77.96
2018-03-27T05:01:23.218Z,78.24
2018-03-27T05:02:33.353Z,78.3
2018-03-27T05:03:43.223Z,78.15
2018-03-27T05:04:53.131Z,78.2
2018-03-27T05:06:02.689Z,78.2
2018-03-27T05:07:12.841Z,78.2
2018-03-27T05:08:22.951Z,78.39
2018-03-27T05:09:32.787Z,78.39
2018-03-27T05:10:42.903Z,77.92
2018-03-27T05:11:52.811Z,78.58
2018-03-27T05:13:03.000Z,78.58
2018-03-27T05:14:12.257Z,78.39
2018-03-27T05:15:22.434Z,78.11
2018-03-27T05:16:32.348Z,78.39
2018-03-27T05:17:42.555Z,78.2
2018-03-27T05:18:52.693Z,78.77
2018-03-27T05:20:02.840Z,78.3
2018-03-27T05:21:13.147Z,78.39
2018-03-27T05:22:23.331Z,78.77
2018-03-27T05:23:33.461Z,79.06
2018-03-27T05:24:43.607Z,78.96
2018-03-27T05:25:53.843Z,78.96
2018-03-27T05:27:04.002Z,79.15
2018-03-27T05:28:14.114Z,79.15
2018-03-27T05:29:24.262Z,79.34
2018-03-27T05:30:34.431Z,79.1
2018-03-27T05:31:44.512Z,78.91
2018-03-27T05:32:54.821Z,78.81
2018-03-27T05:34:04.951Z,78.62
2018-03-27T05:35:15.078Z,78.34
2018-03-27T05:36:25.274Z,78.62
2018-03-27T05:37:35.699Z,78.24
2018-03-27T05:38:45.936Z,78.72
2018-03-27T05:39:55.802Z,78.77
2018-03-27T05:41:05.918Z,78.53
2018-03-27T05:42:15.531Z,78.53
2018-03-27T05:43:25.281Z,78.62
2018-03-27T05:44:35.182Z,78.91
2018-03-27T05:45:45.048Z,78.72
2018-03-27T05:46:55.204Z,78.81
2018-03-27T05:48:05.316Z,78.62
2018-03-27T05:49:15.101Z,78.34
2018-03-27T05:50:25.224Z,78.62
2018-03-27T05:51:34.739Z,78.43
2018-03-27T05:52:44.098Z,78.43
2018-03-27T05:53:54.231Z,78.72
2018-03-27T05:55:03.834Z,78.72
2018-03-27T05:56:13.975Z,78.53
2018-03-27T05:57:24.110Z,78.05
2018-03-27T05:58:33.631Z,78.53
2018-03-27T05:59:43.250Z,78.72
2018-03-27T06:00:53.194Z,78.62
2018-03-27T06:02:03.313Z,78.91
2018-03-27T06:03:12.971Z,78.62
2018-03-27T06:04:23.085Z,78.34
2018-03-27T06:05:33.221Z,78.34
2018-03-27T06:06:43.384Z,78.15
2018-03-27T06:07:53.509Z,78.34
2018-03-27T06:09:03.709Z,77.96
2018-03-27T06:10:13.591Z,78.15
2018-03-27T06:11:23.722Z,78.15
2018-03-27T06:12:33.936Z,78.05
2018-03-27T06:13:44.081Z,78.05
2018-03-27T06:14:54.236Z,78.15
2018-03-27T06:16:04.159Z,77.96
2018-03-27T06:17:13.785Z,77.48
2018-03-27T06:18:23.640Z,77.29
2018-03-27T06:19:33.509Z,77.11
2018-03-27T06:20:43.686Z,77.48
2018-03-27T06:21:53.859Z,77.11
2018-03-27T06:23:04.054Z,77.48
2018-03-27T06:24:14.163Z,77.2
2018-03-27T06:25:23.978Z,77.29
2018-03-27T06:26:34.226Z,77.2
2018-03-27T06:27:44.529Z,77.58
2018-03-27T06:28:54.353Z,77.48
2018-03-27T06:30:04.269Z,77.86
2018-03-27T06:31:14.171Z,77.58
2018-03-27T06:32:24.321Z,77.39
2018-03-27T06:33:34.548Z,77.39
2018-03-27T06:34:44.428Z,77.39
2018-03-27T06:35:54.335Z,77.29
2018-03-27T06:37:04.296Z,77.11
2018-03-27T06:38:14.529Z,76.92
2018-03-27T06:39:24.435Z,76.63
2018-03-27T06:40:34.287Z,76.44
2018-03-27T06:41:44.487Z,76.82
2018-03-27T06:42:54.425Z,76.63
2018-03-27T06:44:04.627Z,76.25
2018-03-27T06:45:14.804Z,76.44
2018-03-27T06:46:24.934Z,76.25
2018-03-27T06:47:34.939Z,76.44
2018-03-27T06:48:45.123Z,76.34
2018-03-27T06:49:54.874Z,76.44
2018-03-27T06:51:04.792Z,76.54
2018-03-27T06:52:14.931Z,76.44
2018-03-27T06:53:25.050Z,76.25
2018-03-27T06:54:35.202Z,76.34
2018-03-27T06:55:45.357Z,76.25
2018-03-27T06:56:55.528Z,76.34
2018-03-27T06:58:05.791Z,76.34
2018-03-27T06:59:15.937Z,76.01
2018-03-27T07:00:26.231Z,76.1
2018-03-27T07:01:36.372Z,76.2
2018-03-27T07:02:46.610Z,75.72
2018-03-27T07:03:56.774Z,76.01
2018-03-27T07:05:06.978Z,75.81
2018-03-27T07:06:17.275Z,75.53
2018-03-27T07:07:27.692Z,75.34
2018-03-27T07:08:37.860Z,75.53
2018-03-27T07:09:48.038Z,75.53
2018-03-27T07:10:58.247Z,75.24
2018-03-27T07:12:08.532Z,74.9
2018-03-27T07:13:19.195Z,74.58
2018-03-27T07:14:29.386Z,74.81
2018-03-27T07:15:39.589Z,74.15
2018-03-27T07:16:49.784Z,74.43
2018-03-27T07:17:59.694Z,74.05
2018-03-27T07:19:09.960Z,74.15
2018-03-27T07:20:20.150Z,73.52
2018-03-27T07:21:30.347Z,73.71
2018-03-27T07:22:40.387Z,73.61
2018-03-27T07:23:50.570Z,73.04
2018-03-27T07:25:00.714Z,73.23
2018-03-27T07:26:10.966Z,72.95
2018-03-27T07:27:21.198Z,72.85
2018-03-27T07:28:31.462Z,72.7
2018-03-27T07:29:41.748Z,72.51
2018-03-27T07:30:52.055Z,71.84
2018-03-27T07:32:02.235Z,72.03
2018-03-27T07:33:12.408Z,71.46
2018-03-27T07:34:22.599Z,71.37
2018-03-27T07:35:32.732Z,71.08
2018-03-27T07:36:43.130Z,70.54
2018-03-27T07:37:53.302Z,70.64
2018-03-27T07:39:03.604Z,70.74
2018-03-27T07:40:13.732Z,70.64
2018-03-27T07:41:23.570Z,70.45
2018-03-27T07:42:33.735Z,70.74
2018-03-27T07:43:43.931Z,70.45
2018-03-27T07:44:54.160Z,69.98
2018-03-27T07:46:03.860Z,70.07
2018-03-27T07:47:14.048Z,69.5
2018-03-27T07:48:24.267Z,69.44
2018-03-27T07:49:34.566Z,69.15
2018-03-27T07:50:44.799Z,69.25
2018-03-27T07:51:54.995Z,68.68
2018-03-27T07:53:05.194Z,69.15
2018-03-27T07:54:15.477Z,69.15
2018-03-27T07:55:25.730Z,68.68
2018-03-27T07:56:36.033Z,68.21
2018-03-27T07:57:46.192Z,68.11
2018-03-27T07:58:56.407Z,68.01
2018-03-27T08:00:06.539Z,67.19
2018-03-27T08:01:16.690Z,67.57
2018-03-27T08:02:26.847Z,67.29
2018-03-27T08:03:36.993Z,67.38
2018-03-27T08:04:47.125Z,66.81
2018-03-27T08:05:57.271Z,66.53
2018-03-27T08:07:07.494Z,66.05
2018-03-27T08:08:17.645Z,65.42
2018-03-27T08:09:27.821Z,65.73
2018-03-27T08:10:37.779Z,64.81
2018-03-27T08:11:48.176Z,63.89
2018-03-27T08:12:58.579Z,62.97
2018-03-27T08:14:08.863Z,62.15
2018-03-27T08:15:19.061Z,61.79
2018-03-27T08:16:29.253Z,60.49
2018-03-27T08:17:39.443Z,58.89
2018-03-27T08:18:49.602Z,58.44
2018-03-27T08:19:59.853Z,57.13
2018-03-27T08:21:10.007Z,56.01
2018-03-27T08:22:20.253Z,54.77
2018-03-27T08:23:30.469Z,52.59
2018-03-27T08:24:40.642Z,51.25
2018-03-27T08:25:50.914Z,51.28
2018-03-27T08:27:01.189Z,50.22
2018-03-27T08:28:11.614Z,49.76
2018-03-27T08:29:21.767Z,49.29
2018-03-27T08:30:31.942Z,48.52
2018-03-27T08:31:42.099Z,48.23
2018-03-27T08:32:52.250Z,48.43
2018-03-27T08:34:02.468Z,47.56
2018-03-27T08:35:12.720Z,47.87
2018-03-27T08:36:23.065Z,46.62
2018-03-27T08:37:33.469Z,46.36
2018-03-27T08:38:43.658Z,45.98
2018-03-27T08:39:53.838Z,45.11
2018-03-27T08:41:03.995Z,44.82
2018-03-27T08:42:14.135Z,44.24
2018-03-27T08:43:24.320Z,43.55
2018-03-27T08:44:34.581Z,44.03
2018-03-27T08:45:44.811Z,44.59
2018-03-27T08:46:55.013Z,44.13
2018-03-27T08:48:05.215Z,44.23
2018-03-27T08:49:15.356Z,44.03
2018-03-27T08:50:25.643Z,43.77
2018-03-27T08:51:35.564Z,43.29
2018-03-27T08:52:45.756Z,43
2018-03-27T08:53:55.961Z,42.25
2018-03-27T08:55:06.190Z,42.18
2018-03-27T08:56:16.335Z,41.41
2018-03-27T08:57:27.095Z,41.33
2018-03-27T08:58:37.387Z,40.66
2018-03-27T08:59:47.616Z,40.88
2018-03-27T09:00:57.920Z,39.36
2018-03-27T09:02:08.089Z,37.43
2018-03-27T09:03:18.251Z,37.04
2018-03-27T09:04:28.387Z,37.91
2018-03-27T09:05:38.572Z,38.78
2018-03-27T09:06:48.773Z,38.1
2018-03-27T09:07:58.982Z,37.54
2018-03-27T09:09:09.440Z,37.16
2018-03-27T09:10:19.606Z,37.43
2018-03-27T09:11:29.805Z,37.14
2018-03-27T09:12:39.963Z,37.14
2018-03-27T09:13:50.105Z,37.14
2018-03-27T09:15:00.788Z,37.14
2018-03-27T09:16:10.608Z,37.43
2018-03-27T09:17:20.783Z,37.14
2018-03-27T09:18:30.710Z,36.66
2018-03-27T09:19:41.218Z,36.54
2018-03-27T09:20:52.593Z,36.62
2018-03-27T09:22:02.798Z,36.53
2018-03-27T09:27:04.355Z,36.33
2018-03-27T09:29:31.054Z,36.53
2018-03-27T09:30:41.210Z,36.43
2018-03-27T09:31:50.996Z,35.77
2018-03-27T09:33:01.198Z,35.87
2018-03-27T09:34:11.009Z,36.16
2018-03-27T09:35:21.206Z,35.77
2018-03-27T09:36:31.360Z,35.3
2018-03-27T09:37:41.744Z,35.2
2018-03-27T09:38:51.658Z,34.81
2018-03-27T09:40:01.902Z,35.22
2018-03-27T09:41:11.808Z,34.74
2018-03-27T09:42:22.072Z,34.19
2018-03-27T09:43:32.024Z,33.25
2018-03-27T09:44:42.247Z,33.07
2018-03-27T09:45:52.188Z,32.87
2018-03-27T09:47:02.351Z,32.78
2018-03-27T09:48:12.520Z,32.75
2018-03-27T09:49:22.497Z,32.9
2018-03-27T09:50:32.335Z,33.2
2018-03-27T09:51:42.129Z,33.36
2018-03-27T09:52:52.380Z,33.91
2018-03-27T09:54:02.595Z,34.57
2018-03-27T09:55:12.868Z,35.3
2018-03-27T09:56:22.829Z,35.49
2018-03-27T09:57:32.353Z,35.11
2018-03-27T09:58:42.310Z,35.03
2018-03-27T09:59:52.289Z,34.65
2018-03-27T10:01:02.291Z,33.9
2018-03-27T10:02:12.537Z,34.01
2018-03-27T10:03:22.552Z,34.01
2018-03-27T10:04:32.586Z,33.45
2018-03-27T10:05:42.540Z,32.79
2018-03-27T10:06:52.713Z,32.52
2018-03-27T10:08:02.522Z,31.77
2018-03-27T10:09:11.850Z,30.71
2018-03-27T10:10:22.131Z,30.32
2018-03-27T10:11:32.111Z,30.73
2018-03-27T10:12:42.085Z,31.3
2018-03-27T10:13:52.335Z,31.21
2018-03-27T10:15:02.239Z,30.82
2018-03-27T10:16:12.057Z,30.82
2018-03-27T10:17:22.286Z,30.53
2018-03-27T10:18:31.979Z,30.35
2018-03-27T10:19:42.133Z,29.97
2018-03-27T10:20:52.334Z,29.21
2018-03-27T10:22:02.286Z,29.52
2018-03-27T10:23:12.612Z,29.03
2018-03-27T10:24:22.596Z,28.56
2018-03-27T10:25:32.642Z,28.66
2018-03-27T10:26:42.446Z,28.64
2018-03-27T10:27:52.245Z,29.02
2018-03-27T10:29:02.462Z,28.99
2018-03-27T10:30:12.693Z,28.96
2018-03-27T10:31:22.745Z,29.33
2018-03-27T10:32:32.937Z,29.4
2018-03-27T10:33:43.124Z,29.96
2018-03-27T10:34:52.954Z,30.23
2018-03-27T10:36:03.826Z,30.52
2018-03-27T10:37:13.729Z,30.35
2018-03-27T10:38:23.691Z,29.67
2018-03-27T10:39:33.910Z,30.07
2018-03-27T10:40:43.557Z,30.36
2018-03-27T10:41:53.468Z,30.36
2018-03-27T10:43:03.620Z,30.08
2018-03-27T10:44:13.852Z,29.7
2018-03-27T10:45:23.856Z,29.62
2018-03-27T10:46:34.129Z,29.35
2018-03-27T10:47:44.000Z,29.72
2018-03-27T10:48:54.229Z,28.95
2018-03-27T10:50:04.472Z,28.66
2018-03-27T10:51:14.336Z,28.37
2018-03-27T10:52:24.541Z,27.98
2018-03-27T10:53:34.731Z,28.09
2018-03-27T10:54:44.888Z,27.91
2018-03-27T10:55:55.080Z,27.81
2018-03-27T10:57:05.300Z,27.72
2018-03-27T10:58:14.577Z,26.78
2018-03-27T10:59:24.746Z,26.78
2018-03-27T11:00:34.975Z,26.78
2018-03-27T11:01:44.908Z,27.34
2018-03-27T11:02:54.769Z,27.71
2018-03-27T11:04:04.672Z,28.08
2018-03-27T11:05:14.562Z,28.55
2018-03-27T11:06:24.481Z,29.02
2018-03-27T11:07:34.475Z,28.91
2018-03-27T11:08:44.115Z,28.91
2018-03-27T11:09:53.573Z,29.38
2018-03-27T11:11:03.629Z,29.49
2018-03-27T11:12:13.006Z,29.3
2018-03-27T11:13:23.178Z,29.32
2018-03-27T11:14:32.856Z,28.95
2018-03-27T11:15:42.832Z,28
2018-03-27T11:16:52.862Z,27.62
2018-03-27T11:18:03.063Z,27.55
2018-03-27T11:19:13.304Z,26.87
2018-03-27T11:20:23.575Z,26.29
2018-03-27T11:21:33.801Z,26.1
2018-03-27T11:22:44.060Z,25.7
2018-03-27T11:23:54.268Z,26.09
2018-03-27T11:25:04.429Z,25.9
2018-03-27T11:26:14.666Z,24.55
2018-03-27T11:27:24.838Z,24.84
2018-03-27T11:28:34.790Z,25.12
2018-03-27T11:29:44.982Z,25.51
2018-03-27T11:30:55.119Z,25.6
2018-03-27T11:32:05.752Z,25.98
2018-03-27T11:33:15.680Z,25.79
2018-03-27T11:34:25.587Z,25.99
2018-03-27T11:35:35.508Z,26.28
2018-03-27T11:36:45.516Z,26.27
2018-03-27T11:37:55.434Z,25.9
2018-03-27T11:39:05.731Z,25.6
2018-03-27T11:40:15.724Z,24.95
2018-03-27T11:41:25.979Z,25.34
2018-03-27T11:42:36.207Z,25.15
2018-03-27T11:43:46.436Z,25.07
2018-03-27T11:44:56.617Z,24.86
2018-03-27T11:46:06.798Z,24.67
2018-03-27T11:47:17.006Z,24.37
2018-03-27T11:48:27.292Z,24.56
2018-03-27T11:49:37.213Z,24.46
2018-03-27T11:50:46.882Z,24.56
2018-03-27T11:51:56.775Z,25.12
2018-03-27T11:53:06.728Z,25.31
2018-03-27T11:54:16.927Z,25.59
2018-03-27T11:55:27.348Z,25.96
2018-03-27T11:56:36.910Z,26.06
2018-03-27T11:57:47.115Z,25.87
2018-03-27T11:58:57.274Z,25.98
2018-03-27T12:00:07.256Z,26.07
2018-03-27T12:01:17.448Z,25.99
2018-03-27T12:02:27.620Z,25.22
2018-03-27T12:03:37.830Z,24.95
2018-03-27T12:04:48.019Z,25.42
2018-03-27T12:05:57.679Z,25.32
2018-03-27T12:07:07.624Z,25.31
2018-03-27T12:08:17.789Z,25.59
2018-03-27T12:09:27.984Z,25.58
2018-03-27T12:10:37.941Z,25.94
2018-03-27T12:11:48.122Z,26.89
2018-03-27T12:12:57.784Z,27.37
2018-03-27T12:14:07.621Z,27.55
2018-03-27T12:15:17.890Z,27.73
2018-03-27T12:16:27.799Z,27.73
2018-03-27T12:17:37.700Z,27.56
2018-03-27T12:18:47.889Z,27.66
2018-03-27T12:19:58.063Z,27.56
2018-03-27T12:21:07.940Z,27.58
2018-03-27T12:22:18.091Z,27.19
2018-03-27T12:23:28.315Z,27.3
2018-03-27T12:24:38.518Z,25.95
2018-03-27T12:25:48.193Z,25.85
2018-03-27T12:26:58.064Z,26.32
2018-03-27T12:28:07.492Z,26.61
2018-03-27T12:29:17.305Z,26.31
2018-03-27T12:30:27.203Z,26.98
2018-03-27T12:31:37.200Z,26.68
2018-03-27T12:32:47.514Z,27.36
2018-03-27T12:33:57.683Z,27.34
2018-03-27T12:35:07.853Z,27.15
2018-03-27T12:36:18.004Z,28.01
2018-03-27T12:37:29.016Z,28.2
2018-03-27T12:38:39.470Z,28.68
2018-03-27T12:39:49.621Z,28.67
2018-03-27T12:40:59.537Z,28.77
2018-03-27T12:42:09.503Z,28.96
2018-03-27T12:43:19.356Z,29.52
2018-03-27T12:44:29.575Z,29.6
2018-03-27T12:45:39.770Z,29.98
2018-03-27T12:46:49.964Z,30.27
2018-03-27T12:48:00.176Z,30.93
2018-03-27T12:49:10.380Z,31.4
2018-03-27T12:50:20.722Z,31.67
2018-03-27T12:51:30.686Z,31.87
2018-03-27T12:52:40.878Z,32.52
2018-03-27T12:53:51.057Z,32.79
2018-03-27T12:55:01.232Z,33.36
2018-03-27T12:56:11.398Z,33.94
2018-03-27T12:57:21.574Z,33.83
2018-03-27T12:58:31.779Z,34.13
2018-03-27T13:00:13.848Z,34.2
2018-03-27T13:01:24.004Z,34.22
2018-03-27T13:02:33.327Z,34.22
2018-03-27T13:03:44.439Z,34.13
2018-03-27T13:04:54.282Z,34.42
2018-03-27T13:06:04.318Z,34.32
2018-03-27T13:07:15.440Z,34.53
2018-03-27T13:08:25.364Z,34.63
2018-03-27T13:09:35.549Z,34.53
2018-03-27T13:10:45.194Z,34.34
2018-03-27T13:11:55.197Z,34.43
2018-03-27T13:13:05.265Z,34.63
2018-03-27T13:14:15.490Z,34.63
2018-03-27T13:15:25.907Z,34.43
2018-03-27T13:16:36.052Z,33.95
2018-03-27T13:17:45.971Z,33.94
2018-03-27T13:18:55.902Z,33.84
2018-03-27T13:20:06.062Z,34.01
2018-03-27T13:21:16.273Z,34.49
2018-03-27T13:22:26.240Z,34.49
2018-03-27T13:23:35.924Z,34.49
2018-03-27T13:24:45.565Z,34.69
2018-03-27T13:25:55.739Z,34.3
2018-03-27T13:27:05.920Z,34.03
2018-03-27T13:28:16.101Z,34.03
2018-03-27T13:29:26.872Z,34.22
2018-03-27T13:30:37.072Z,34.22
2018-03-27T13:31:47.273Z,34.13
2018-03-27T13:32:57.572Z,34.14
2018-03-27T13:34:07.779Z,34.53
2018-03-27T13:35:17.579Z,34.63
2018-03-27T13:36:27.738Z,34.91
2018-03-27T13:37:37.906Z,34.63
2018-03-27T13:38:49.087Z,34.63
2018-03-27T13:39:58.740Z,34.91
2018-03-27T13:41:08.643Z,35
2018-03-27T13:42:18.457Z,35.29
2018-03-27T13:43:28.665Z,35.28
2018-03-27T13:44:38.671Z,35.39
2018-03-27T13:45:48.608Z,35.18
2018-03-27T13:46:58.791Z,35.18
2018-03-27T13:48:09.150Z,35.28
2018-03-27T13:49:19.334Z,35.75
2018-03-27T13:50:29.273Z,36.04
2018-03-27T13:51:39.049Z,35.66
2018-03-27T13:52:48.665Z,35.66
2018-03-27T13:53:59.007Z,35.66
2018-03-27T13:55:08.920Z,35.57
2018-03-27T13:56:19.074Z,35.66
2018-03-27T13:57:29.256Z,35.28
2018-03-27T13:58:39.207Z,35.28
2018-03-27T13:59:49.399Z,35.18
2018-03-27T14:01:00.314Z,34.7
2018-03-27T14:02:10.215Z,34.89
2018-03-27T14:03:20.432Z,34.89
2018-03-27T14:04:30.612Z,34.7
2018-03-27T14:05:40.820Z,34.7
2018-03-27T14:06:50.701Z,34.61
2018-03-27T14:08:00.502Z,34.51
2018-03-27T14:09:10.452Z,34.61
2018-03-27T14:10:20.761Z,34.4
2018-03-27T14:11:30.713Z,34.88
2018-03-27T14:12:40.889Z,34.88
2018-03-27T14:13:50.425Z,34.88
2018-03-27T14:15:00.787Z,35.16
2018-03-27T14:16:11.021Z,34.88
2018-03-27T14:17:20.844Z,35.06
2018-03-27T14:18:30.780Z,34.78
2018-03-27T14:19:40.701Z,35.16
2018-03-27T14:20:50.751Z,35.26
2018-03-27T14:22:00.979Z,35.55
2018-03-27T14:23:11.200Z,35.55
2018-03-27T14:24:21.366Z,36.02
2018-03-27T14:25:31.120Z,35.83
2018-03-27T14:26:41.311Z,35.55
2018-03-27T14:27:51.232Z,35.83
2018-03-27T14:29:01.416Z,35.93
2018-03-27T14:30:11.596Z,36.02
2018-03-27T14:31:21.513Z,36.21
2018-03-27T14:32:31.697Z,36.12
2018-03-27T14:33:41.282Z,36.19
2018-03-27T14:34:51.217Z,36.29
2018-03-27T14:36:01.411Z,36.58
2018-03-27T14:37:11.215Z,37.04
2018-03-27T14:38:21.259Z,37.13
2018-03-27T14:39:31.487Z,37.71
2018-03-27T14:40:42.004Z,37.71
2018-03-27T14:41:52.239Z,37.42
2018-03-27T14:43:02.484Z,37.61
2018-03-27T14:44:12.692Z,37.71
2018-03-27T14:45:22.905Z,37.8
2018-03-27T14:46:33.203Z,37.8
2018-03-27T14:47:43.446Z,37.99
2018-03-27T14:48:53.625Z,37.99
2018-03-27T14:50:03.852Z,38.28
2018-03-27T14:51:14.092Z,38.18
2018-03-27T14:52:24.286Z,38.76
2018-03-27T14:53:34.459Z,39.02
2018-03-27T14:54:44.396Z,38.93
2018-03-27T14:55:54.592Z,39.02
2018-03-27T14:57:04.783Z,39.02
2018-03-27T14:58:14.694Z,39.69
2018-03-27T14:59:24.892Z,39.4
2018-03-27T15:00:35.106Z,39.69
2018-03-27T15:01:44.921Z,39.5
2018-03-27T15:02:55.196Z,39.69
2018-03-27T15:04:05.225Z,40.24
2018-03-27T15:05:15.358Z,40.15
2018-03-27T15:06:25.534Z,40.44
2018-03-27T15:07:35.729Z,40.24
2018-03-27T15:08:45.898Z,40.44
2018-03-27T15:09:57.038Z,40.44